sensor_id;sensor_type;location;lat;lon;timestamp;P1;durP1;ratioP1;P2;durP2;ratioP2
54947;SDS011;41113;41.882;12.530;2023-05-10T00:00:27;11.30;;;5.70;;
54947;SDS011;41113;41.882;12.530;2023-05-10T00:02:52;10.38;;;6.03;;
54947;SDS011;41113;41.882;12.530;2023-05-10T00:05:17;11.27;;;5.40;;
54947;SDS011;41113;41.882;12.530;2023-05-10T00:07:43;11.48;;;6.35;;
54947;SDS011;41113;41.882;12.530;2023-05-10T00:10:09;11.70;;;6.60;;
54947;SDS011;41113;41.882;12.530;2023-05-10T00:12:35;11.88;;;6.57;;
54947;SDS011;41113;41.882;12.530;2023-05-10T00:15:01;11.82;;;6.78;;
54947;SDS011;41113;41.882;12.530;2023-05-10T00:17:26;10.98;;;6.50;;
54947;SDS011;41113;41.882;12.530;2023-05-10T00:19:51;15.02;;;7.00;;
54947;SDS011;41113;41.882;12.530;2023-05-10T00:22:17;11.95;;;6.15;;
54947;SDS011;41113;41.882;12.530;2023-05-10T00:24:42;12.18;;;7.10;;
54947;SDS011;41113;41.882;12.530;2023-05-10T00:27:07;13.20;;;6.63;;
54947;SDS011;41113;41.882;12.530;2023-05-10T00:29:33;12.57;;;6.78;;
54947;SDS011;41113;41.882;12.530;2023-05-10T00:31:58;12.55;;;6.97;;
54947;SDS011;41113;41.882;12.530;2023-05-10T00:34:24;12.23;;;6.82;;
54947;SDS011;41113;41.882;12.530;2023-05-10T00:36:49;10.90;;;6.43;;
54947;SDS011;41113;41.882;12.530;2023-05-10T00:39:15;11.20;;;5.93;;
54947;SDS011;41113;41.882;12.530;2023-05-10T00:41:40;10.23;;;5.90;;
54947;SDS011;41113;41.882;12.530;2023-05-10T00:44:06;10.38;;;6.15;;
54947;SDS011;41113;41.882;12.530;2023-05-10T00:46:31;10.02;;;5.55;;
54947;SDS011;41113;41.882;12.530;2023-05-10T00:48:58;11.98;;;6.60;;
54947;SDS011;41113;41.882;12.530;2023-05-10T00:51:24;12.50;;;6.90;;
54947;SDS011;41113;41.882;12.530;2023-05-10T00:53:49;13.00;;;6.80;;
54947;SDS011;41113;41.882;12.530;2023-05-10T00:56:16;13.85;;;7.50;;
54947;SDS011;41113;41.882;12.530;2023-05-10T00:58:42;12.85;;;7.28;;
54947;SDS011;41113;41.882;12.530;2023-05-10T01:01:08;11.63;;;6.55;;
54947;SDS011;41113;41.882;12.530;2023-05-10T01:03:34;12.52;;;6.90;;
54947;SDS011;41113;41.882;12.530;2023-05-10T01:06:00;10.77;;;6.22;;
54947;SDS011;41113;41.882;12.530;2023-05-10T01:08:25;11.23;;;6.43;;
54947;SDS011;41113;41.882;12.530;2023-05-10T01:10:51;11.88;;;6.55;;
54947;SDS011;41113;41.882;12.530;2023-05-10T01:13:18;12.32;;;6.90;;
54947;SDS011;41113;41.882;12.530;2023-05-10T01:15:55;12.07;;;6.78;;
54947;SDS011;41113;41.882;12.530;2023-05-10T01:18:21;15.00;;;8.32;;
54947;SDS011;41113;41.882;12.530;2023-05-10T01:20:48;13.98;;;7.35;;
54947;SDS011;41113;41.882;12.530;2023-05-10T01:23:31;12.77;;;7.53;;
54947;SDS011;41113;41.882;12.530;2023-05-10T01:37:45;13.75;;;6.82;;
54947;SDS011;41113;41.882;12.530;2023-05-10T01:43:32;11.57;;;5.97;;
54947;SDS011;41113;41.882;12.530;2023-05-10T01:46:03;12.07;;;6.50;;
54947;SDS011;41113;41.882;12.530;2023-05-10T01:48:47;12.57;;;6.90;;
54947;SDS011;41113;41.882;12.530;2023-05-10T01:51:17;14.18;;;7.07;;
54947;SDS011;41113;41.882;12.530;2023-05-10T01:53:47;12.63;;;7.30;;
54947;SDS011;41113;41.882;12.530;2023-05-10T01:56:15;13.32;;;7.20;;
54947;SDS011;41113;41.882;12.530;2023-05-10T01:58:43;15.77;;;8.00;;
54947;SDS011;41113;41.882;12.530;2023-05-10T02:01:12;12.25;;;7.32;;
54947;SDS011;41113;41.882;12.530;2023-05-10T02:03:38;11.60;;;6.82;;
54947;SDS011;41113;41.882;12.530;2023-05-10T02:06:06;12.60;;;7.53;;
54947;SDS011;41113;41.882;12.530;2023-05-10T02:08:33;12.57;;;6.82;;
54947;SDS011;41113;41.882;12.530;2023-05-10T02:11:02;13.98;;;7.82;;
54947;SDS011;41113;41.882;12.530;2023-05-10T02:13:28;14.82;;;7.75;;
54947;SDS011;41113;41.882;12.530;2023-05-10T02:15:57;16.73;;;8.65;;
54947;SDS011;41113;41.882;12.530;2023-05-10T02:18:24;15.52;;;8.75;;
54947;SDS011;41113;41.882;12.530;2023-05-10T02:20:52;16.40;;;9.13;;
54947;SDS011;41113;41.882;12.530;2023-05-10T02:23:20;14.82;;;9.00;;
54947;SDS011;41113;41.882;12.530;2023-05-10T02:25:48;15.13;;;8.50;;
54947;SDS011;41113;41.882;12.530;2023-05-10T02:28:16;15.25;;;8.93;;
54947;SDS011;41113;41.882;12.530;2023-05-10T02:30:42;15.50;;;8.77;;
54947;SDS011;41113;41.882;12.530;2023-05-10T02:33:09;15.82;;;8.35;;
54947;SDS011;41113;41.882;12.530;2023-05-10T02:35:35;15.13;;;9.02;;
54947;SDS011;41113;41.882;12.530;2023-05-10T02:38:03;14.10;;;8.18;;
54947;SDS011;41113;41.882;12.530;2023-05-10T02:40:29;15.57;;;7.75;;
54947;SDS011;41113;41.882;12.530;2023-05-10T02:42:56;14.20;;;7.03;;
54947;SDS011;41113;41.882;12.530;2023-05-10T02:45:24;14.30;;;7.53;;
54947;SDS011;41113;41.882;12.530;2023-05-10T02:47:54;15.65;;;7.88;;
54947;SDS011;41113;41.882;12.530;2023-05-10T02:50:19;15.48;;;7.68;;
54947;SDS011;41113;41.882;12.530;2023-05-10T02:52:47;12.27;;;7.47;;
54947;SDS011;41113;41.882;12.530;2023-05-10T02:55:19;14.50;;;8.57;;
54947;SDS011;41113;41.882;12.530;2023-05-10T02:57:57;12.40;;;7.70;;
54947;SDS011;41113;41.882;12.530;2023-05-10T03:00:25;13.68;;;8.52;;
54947;SDS011;41113;41.882;12.530;2023-05-10T03:02:50;14.38;;;8.55;;
54947;SDS011;41113;41.882;12.530;2023-05-10T03:05:16;14.70;;;8.73;;
54947;SDS011;41113;41.882;12.530;2023-05-10T03:07:41;17.35;;;8.85;;
54947;SDS011;41113;41.882;12.530;2023-05-10T03:10:07;16.38;;;9.10;;
54947;SDS011;41113;41.882;12.530;2023-05-10T03:18:17;15.38;;;9.68;;
54947;SDS011;41113;41.882;12.530;2023-05-10T03:20:50;13.98;;;8.57;;
54947;SDS011;41113;41.882;12.530;2023-05-10T03:23:30;14.95;;;8.30;;
54947;SDS011;41113;41.882;12.530;2023-05-10T03:28:55;15.52;;;8.98;;
54947;SDS011;41113;41.882;12.530;2023-05-10T03:31:23;16.17;;;9.15;;
54947;SDS011;41113;41.882;12.530;2023-05-10T03:33:49;18.33;;;8.85;;
54947;SDS011;41113;41.882;12.530;2023-05-10T03:36:16;16.23;;;8.30;;
54947;SDS011;41113;41.882;12.530;2023-05-10T03:38:42;13.25;;;8.27;;
54947;SDS011;41113;41.882;12.530;2023-05-10T03:41:07;15.85;;;9.23;;
54947;SDS011;41113;41.882;12.530;2023-05-10T03:43:33;14.65;;;9.23;;
54947;SDS011;41113;41.882;12.530;2023-05-10T03:45:58;16.63;;;9.95;;
54947;SDS011;41113;41.882;12.530;2023-05-10T03:48:26;15.40;;;9.73;;
54947;SDS011;41113;41.882;12.530;2023-05-10T03:50:51;14.55;;;8.25;;
54947;SDS011;41113;41.882;12.530;2023-05-10T03:53:16;14.80;;;8.40;;
54947;SDS011;41113;41.882;12.530;2023-05-10T03:55:42;13.73;;;8.60;;
54947;SDS011;41113;41.882;12.530;2023-05-10T03:58:10;15.02;;;8.68;;
54947;SDS011;41113;41.882;12.530;2023-05-10T04:00:36;14.20;;;7.53;;
54947;SDS011;41113;41.882;12.530;2023-05-10T04:03:02;13.25;;;8.00;;
54947;SDS011;41113;41.882;12.530;2023-05-10T04:05:27;14.63;;;8.68;;
54947;SDS011;41113;41.882;12.530;2023-05-10T04:07:53;15.80;;;8.35;;
54947;SDS011;41113;41.882;12.530;2023-05-10T04:10:18;14.23;;;8.90;;
54947;SDS011;41113;41.882;12.530;2023-05-10T04:12:43;14.57;;;8.55;;
54947;SDS011;41113;41.882;12.530;2023-05-10T04:15:09;14.80;;;8.65;;
54947;SDS011;41113;41.882;12.530;2023-05-10T04:17:34;15.80;;;8.80;;
54947;SDS011;41113;41.882;12.530;2023-05-10T04:20:00;15.32;;;8.88;;
54947;SDS011;41113;41.882;12.530;2023-05-10T04:22:25;13.68;;;8.13;;
54947;SDS011;41113;41.882;12.530;2023-05-10T04:24:50;15.00;;;8.55;;
54947;SDS011;41113;41.882;12.530;2023-05-10T04:27:17;16.42;;;8.50;;
54947;SDS011;41113;41.882;12.530;2023-05-10T04:29:42;13.73;;;8.30;;
54947;SDS011;41113;41.882;12.530;2023-05-10T04:32:08;13.00;;;7.50;;
54947;SDS011;41113;41.882;12.530;2023-05-10T04:34:35;12.90;;;7.35;;
54947;SDS011;41113;41.882;12.530;2023-05-10T04:37:01;16.58;;;8.38;;
54947;SDS011;41113;41.882;12.530;2023-05-10T04:39:26;15.27;;;9.18;;
54947;SDS011;41113;41.882;12.530;2023-05-10T04:41:53;18.65;;;9.52;;
54947;SDS011;41113;41.882;12.530;2023-05-10T04:44:18;15.15;;;9.15;;
54947;SDS011;41113;41.882;12.530;2023-05-10T04:46:43;15.75;;;8.68;;
54947;SDS011;41113;41.882;12.530;2023-05-10T04:49:09;11.98;;;7.57;;
54947;SDS011;41113;41.882;12.530;2023-05-10T04:51:34;11.27;;;7.10;;
54947;SDS011;41113;41.882;12.530;2023-05-10T04:53:59;11.45;;;7.28;;
54947;SDS011;41113;41.882;12.530;2023-05-10T04:56:25;12.65;;;7.45;;
54947;SDS011;41113;41.882;12.530;2023-05-10T04:58:50;13.35;;;7.85;;
54947;SDS011;41113;41.882;12.530;2023-05-10T05:01:16;12.98;;;6.93;;
54947;SDS011;41113;41.882;12.530;2023-05-10T05:03:41;13.70;;;8.13;;
54947;SDS011;41113;41.882;12.530;2023-05-10T05:06:09;13.32;;;7.28;;
54947;SDS011;41113;41.882;12.530;2023-05-10T05:08:34;13.68;;;7.25;;
54947;SDS011;41113;41.882;12.530;2023-05-10T05:10:59;14.70;;;7.68;;
54947;SDS011;41113;41.882;12.530;2023-05-10T05:13:25;17.85;;;7.80;;
54947;SDS011;41113;41.882;12.530;2023-05-10T05:15:50;12.27;;;7.35;;
54947;SDS011;41113;41.882;12.530;2023-05-10T05:18:15;14.50;;;7.60;;
54947;SDS011;41113;41.882;12.530;2023-05-10T05:20:41;13.05;;;8.10;;
54947;SDS011;41113;41.882;12.530;2023-05-10T05:23:06;13.48;;;7.30;;
54947;SDS011;41113;41.882;12.530;2023-05-10T05:25:31;15.32;;;8.25;;
54947;SDS011;41113;41.882;12.530;2023-05-10T05:27:57;18.77;;;9.10;;
54947;SDS011;41113;41.882;12.530;2023-05-10T05:30:22;13.10;;;7.88;;
54947;SDS011;41113;41.882;12.530;2023-05-10T05:32:48;15.88;;;9.05;;
54947;SDS011;41113;41.882;12.530;2023-05-10T05:35:13;15.82;;;8.07;;
54947;SDS011;41113;41.882;12.530;2023-05-10T05:37:38;14.32;;;8.10;;
54947;SDS011;41113;41.882;12.530;2023-05-10T05:40:04;15.23;;;9.30;;
54947;SDS011;41113;41.882;12.530;2023-05-10T05:42:30;14.65;;;9.25;;
54947;SDS011;41113;41.882;12.530;2023-05-10T05:44:56;13.02;;;8.30;;
54947;SDS011;41113;41.882;12.530;2023-05-10T05:47:21;14.18;;;8.07;;
54947;SDS011;41113;41.882;12.530;2023-05-10T05:49:47;15.00;;;8.35;;
54947;SDS011;41113;41.882;12.530;2023-05-10T05:52:13;13.70;;;8.45;;
54947;SDS011;41113;41.882;12.530;2023-05-10T05:54:39;14.82;;;7.88;;
54947;SDS011;41113;41.882;12.530;2023-05-10T05:57:04;15.70;;;7.40;;
54947;SDS011;41113;41.882;12.530;2023-05-10T05:59:30;12.15;;;6.55;;
54947;SDS011;41113;41.882;12.530;2023-05-10T06:01:55;13.05;;;6.28;;
54947;SDS011;41113;41.882;12.530;2023-05-10T06:04:21;11.65;;;5.60;;
54947;SDS011;41113;41.882;12.530;2023-05-10T06:06:46;11.98;;;5.80;;
54947;SDS011;41113;41.882;12.530;2023-05-10T06:09:11;13.30;;;4.78;;
54947;SDS011;41113;41.882;12.530;2023-05-10T06:11:37;13.00;;;5.03;;
54947;SDS011;41113;41.882;12.530;2023-05-10T06:14:03;11.13;;;4.90;;
54947;SDS011;41113;41.882;12.530;2023-05-10T06:16:29;11.90;;;4.53;;
54947;SDS011;41113;41.882;12.530;2023-05-10T06:18:55;10.88;;;4.65;;
54947;SDS011;41113;41.882;12.530;2023-05-10T06:21:21;10.63;;;4.30;;
54947;SDS011;41113;41.882;12.530;2023-05-10T06:23:46;9.13;;;3.85;;
54947;SDS011;41113;41.882;12.530;2023-05-10T06:26:12;10.88;;;4.45;;
54947;SDS011;41113;41.882;12.530;2023-05-10T06:28:38;8.80;;;3.88;;
54947;SDS011;41113;41.882;12.530;2023-05-10T06:31:04;9.45;;;4.13;;
54947;SDS011;41113;41.882;12.530;2023-05-10T06:33:30;8.88;;;3.83;;
54947;SDS011;41113;41.882;12.530;2023-05-10T06:35:56;8.77;;;3.38;;
54947;SDS011;41113;41.882;12.530;2023-05-10T06:38:22;9.45;;;3.60;;
54947;SDS011;41113;41.882;12.530;2023-05-10T06:40:47;8.90;;;3.40;;
54947;SDS011;41113;41.882;12.530;2023-05-10T06:43:12;9.43;;;3.53;;
54947;SDS011;41113;41.882;12.530;2023-05-10T06:45:38;11.32;;;3.53;;
54947;SDS011;41113;41.882;12.530;2023-05-10T06:48:03;10.95;;;4.43;;
54947;SDS011;41113;41.882;12.530;2023-05-10T06:50:30;11.13;;;3.95;;
54947;SDS011;41113;41.882;12.530;2023-05-10T06:52:57;8.38;;;3.13;;
54947;SDS011;41113;41.882;12.530;2023-05-10T06:55:23;10.95;;;3.85;;
54947;SDS011;41113;41.882;12.530;2023-05-10T06:57:48;8.90;;;3.55;;
54947;SDS011;41113;41.882;12.530;2023-05-10T07:00:14;10.68;;;3.90;;
54947;SDS011;41113;41.882;12.530;2023-05-10T07:02:39;11.85;;;4.20;;
54947;SDS011;41113;41.882;12.530;2023-05-10T07:05:05;11.45;;;3.83;;
54947;SDS011;41113;41.882;12.530;2023-05-10T07:07:31;11.60;;;4.00;;
54947;SDS011;41113;41.882;12.530;2023-05-10T07:09:56;9.77;;;3.40;;
54947;SDS011;41113;41.882;12.530;2023-05-10T07:12:22;8.80;;;3.53;;
54947;SDS011;41113;41.882;12.530;2023-05-10T07:14:48;10.45;;;3.50;;
54947;SDS011;41113;41.882;12.530;2023-05-10T07:17:13;9.93;;;3.35;;
54947;SDS011;41113;41.882;12.530;2023-05-10T07:19:39;7.72;;;2.97;;
54947;SDS011;41113;41.882;12.530;2023-05-10T07:22:04;10.73;;;3.15;;
54947;SDS011;41113;41.882;12.530;2023-05-10T07:24:30;12.20;;;3.50;;
54947;SDS011;41113;41.882;12.530;2023-05-10T07:26:56;8.88;;;3.95;;
54947;SDS011;41113;41.882;12.530;2023-05-10T07:29:21;8.95;;;3.90;;
54947;SDS011;41113;41.882;12.530;2023-05-10T07:31:47;10.07;;;4.00;;
54947;SDS011;41113;41.882;12.530;2023-05-10T07:34:12;9.18;;;3.40;;
54947;SDS011;41113;41.882;12.530;2023-05-10T07:36:38;12.02;;;4.70;;
54947;SDS011;41113;41.882;12.530;2023-05-10T07:39:03;9.25;;;4.13;;
54947;SDS011;41113;41.882;12.530;2023-05-10T07:41:29;10.73;;;3.70;;
54947;SDS011;41113;41.882;12.530;2023-05-10T07:43:54;9.95;;;3.70;;
54947;SDS011;41113;41.882;12.530;2023-05-10T07:46:19;8.27;;;3.63;;
54947;SDS011;41113;41.882;12.530;2023-05-10T07:48:45;9.75;;;3.67;;
54947;SDS011;41113;41.882;12.530;2023-05-10T07:51:10;9.50;;;4.13;;
54947;SDS011;41113;41.882;12.530;2023-05-10T07:53:37;10.50;;;4.72;;
54947;SDS011;41113;41.882;12.530;2023-05-10T07:56:19;12.35;;;4.60;;
54947;SDS011;41113;41.882;12.530;2023-05-10T07:58:46;9.35;;;3.45;;
54947;SDS011;41113;41.882;12.530;2023-05-10T08:01:12;8.57;;;3.53;;
54947;SDS011;41113;41.882;12.530;2023-05-10T08:03:37;8.40;;;3.72;;
54947;SDS011;41113;41.882;12.530;2023-05-10T08:06:02;8.73;;;3.30;;
54947;SDS011;41113;41.882;12.530;2023-05-10T08:08:28;9.20;;;3.83;;
54947;SDS011;41113;41.882;12.530;2023-05-10T08:10:54;9.07;;;3.70;;
54947;SDS011;41113;41.882;12.530;2023-05-10T08:13:20;8.93;;;3.55;;
54947;SDS011;41113;41.882;12.530;2023-05-10T08:15:46;9.27;;;3.72;;
54947;SDS011;41113;41.882;12.530;2023-05-10T08:18:12;8.90;;;3.75;;
54947;SDS011;41113;41.882;12.530;2023-05-10T08:20:37;8.45;;;3.83;;
54947;SDS011;41113;41.882;12.530;2023-05-10T08:23:03;8.30;;;3.92;;
54947;SDS011;41113;41.882;12.530;2023-05-10T08:25:28;9.15;;;3.65;;
54947;SDS011;41113;41.882;12.530;2023-05-10T08:27:54;9.40;;;3.50;;
54947;SDS011;41113;41.882;12.530;2023-05-10T08:30:20;10.30;;;3.67;;
54947;SDS011;41113;41.882;12.530;2023-05-10T08:32:46;7.93;;;3.22;;
54947;SDS011;41113;41.882;12.530;2023-05-10T08:35:11;8.85;;;3.33;;
54947;SDS011;41113;41.882;12.530;2023-05-10T08:37:36;7.22;;;2.95;;
54947;SDS011;41113;41.882;12.530;2023-05-10T08:40:02;8.70;;;3.50;;
54947;SDS011;41113;41.882;12.530;2023-05-10T08:42:28;8.45;;;3.17;;
54947;SDS011;41113;41.882;12.530;2023-05-10T08:44:56;9.10;;;3.72;;
54947;SDS011;41113;41.882;12.530;2023-05-10T08:47:22;8.27;;;3.15;;
54947;SDS011;41113;41.882;12.530;2023-05-10T08:49:48;8.50;;;3.20;;
54947;SDS011;41113;41.882;12.530;2023-05-10T08:52:16;7.95;;;2.78;;
54947;SDS011;41113;41.882;12.530;2023-05-10T08:54:42;8.15;;;3.08;;
54947;SDS011;41113;41.882;12.530;2023-05-10T08:57:09;8.93;;;3.25;;
54947;SDS011;41113;41.882;12.530;2023-05-10T08:59:35;14.10;;;3.47;;
54947;SDS011;41113;41.882;12.530;2023-05-10T09:02:04;9.85;;;3.38;;
54947;SDS011;41113;41.882;12.530;2023-05-10T09:04:31;10.38;;;3.75;;
54947;SDS011;41113;41.882;12.530;2023-05-10T09:06:56;10.38;;;3.47;;
54947;SDS011;41113;41.882;12.530;2023-05-10T09:09:23;9.60;;;2.97;;
54947;SDS011;41113;41.882;12.530;2023-05-10T09:11:50;7.40;;;2.67;;
54947;SDS011;41113;41.882;12.530;2023-05-10T09:14:16;9.15;;;2.95;;
54947;SDS011;41113;41.882;12.530;2023-05-10T09:16:43;9.05;;;3.05;;
54947;SDS011;41113;41.882;12.530;2023-05-10T09:19:09;10.02;;;2.70;;
54947;SDS011;41113;41.882;12.530;2023-05-10T09:21:35;7.65;;;3.10;;
54947;SDS011;41113;41.882;12.530;2023-05-10T09:24:04;8.23;;;2.90;;
54947;SDS011;41113;41.882;12.530;2023-05-10T09:26:31;9.75;;;3.85;;
54947;SDS011;41113;41.882;12.530;2023-05-10T09:28:57;10.48;;;3.05;;
54947;SDS011;41113;41.882;12.530;2023-05-10T09:31:24;9.35;;;2.60;;
54947;SDS011;41113;41.882;12.530;2023-05-10T09:34:15;7.70;;;2.70;;
54947;SDS011;41113;41.882;12.530;2023-05-10T09:36:58;250.98;;;39.72;;
54947;SDS011;41113;41.882;12.530;2023-05-10T09:39:32;30.10;;;11.90;;
54947;SDS011;41113;41.882;12.530;2023-05-10T09:42:02;17.65;;;6.95;;
54947;SDS011;41113;41.882;12.530;2023-05-10T09:44:31;23.80;;;7.10;;
54947;SDS011;41113;41.882;12.530;2023-05-10T09:46:59;20.40;;;5.60;;
54947;SDS011;41113;41.882;12.530;2023-05-10T09:49:26;13.50;;;4.07;;
54947;SDS011;41113;41.882;12.530;2023-05-10T09:52:06;10.45;;;3.97;;
54947;SDS011;41113;41.882;12.530;2023-05-10T09:54:35;12.27;;;4.10;;
54947;SDS011;41113;41.882;12.530;2023-05-10T09:57:03;10.80;;;3.40;;
54947;SDS011;41113;41.882;12.530;2023-05-10T09:59:32;13.73;;;3.60;;
54947;SDS011;41113;41.882;12.530;2023-05-10T10:02:00;8.40;;;2.95;;
54947;SDS011;41113;41.882;12.530;2023-05-10T10:04:26;10.38;;;4.00;;
54947;SDS011;41113;41.882;12.530;2023-05-10T10:06:59;9.95;;;3.10;;
54947;SDS011;41113;41.882;12.530;2023-05-10T10:09:27;9.68;;;3.10;;
54947;SDS011;41113;41.882;12.530;2023-05-10T10:11:54;10.30;;;3.25;;
54947;SDS011;41113;41.882;12.530;2023-05-10T10:14:21;9.68;;;3.40;;
54947;SDS011;41113;41.882;12.530;2023-05-10T10:16:53;8.25;;;3.47;;
54947;SDS011;41113;41.882;12.530;2023-05-10T10:21:55;9.27;;;3.65;;
54947;SDS011;41113;41.882;12.530;2023-05-10T10:24:24;9.98;;;3.30;;
54947;SDS011;41113;41.882;12.530;2023-05-10T10:27:48;8.40;;;3.75;;
54947;SDS011;41113;41.882;12.530;2023-05-10T10:36:12;11.43;;;4.30;;
54947;SDS011;41113;41.882;12.530;2023-05-10T10:41:30;9.13;;;3.40;;
54947;SDS011;41113;41.882;12.530;2023-05-10T10:47:20;9.02;;;4.00;;
54947;SDS011;41113;41.882;12.530;2023-05-10T10:50:02;9.23;;;3.90;;
54947;SDS011;41113;41.882;12.530;2023-05-10T10:52:39;9.63;;;3.75;;
54947;SDS011;41113;41.882;12.530;2023-05-10T10:55:06;10.77;;;3.75;;
54947;SDS011;41113;41.882;12.530;2023-05-10T10:57:42;8.30;;;3.83;;
54947;SDS011;41113;41.882;12.530;2023-05-10T11:03:14;9.88;;;3.38;;
54947;SDS011;41113;41.882;12.530;2023-05-10T11:05:42;11.10;;;4.15;;
54947;SDS011;41113;41.882;12.530;2023-05-10T11:15:57;10.18;;;4.53;;
54947;SDS011;41113;41.882;12.530;2023-05-10T11:18:36;9.98;;;3.50;;
54947;SDS011;41113;41.882;12.530;2023-05-10T11:21:02;8.10;;;3.47;;
54947;SDS011;41113;41.882;12.530;2023-05-10T11:26:07;7.88;;;2.80;;
54947;SDS011;41113;41.882;12.530;2023-05-10T11:28:45;7.43;;;2.10;;
54947;SDS011;41113;41.882;12.530;2023-05-10T11:31:18;7.32;;;2.40;;
54947;SDS011;41113;41.882;12.530;2023-05-10T11:33:44;6.95;;;2.45;;
54947;SDS011;41113;41.882;12.530;2023-05-10T11:36:20;6.43;;;2.10;;
54947;SDS011;41113;41.882;12.530;2023-05-10T11:38:48;7.30;;;1.93;;
54947;SDS011;41113;41.882;12.530;2023-05-10T11:41:14;6.13;;;1.75;;
54947;SDS011;41113;41.882;12.530;2023-05-10T11:43:41;7.68;;;1.77;;
54947;SDS011;41113;41.882;12.530;2023-05-10T11:46:07;6.60;;;2.00;;
54947;SDS011;41113;41.882;12.530;2023-05-10T11:48:35;6.65;;;1.92;;
54947;SDS011;41113;41.882;12.530;2023-05-10T11:51:01;7.30;;;1.75;;
54947;SDS011;41113;41.882;12.530;2023-05-10T11:53:28;6.03;;;1.73;;
54947;SDS011;41113;41.882;12.530;2023-05-10T11:55:54;5.82;;;1.67;;
54947;SDS011;41113;41.882;12.530;2023-05-10T11:58:21;5.93;;;1.77;;
54947;SDS011;41113;41.882;12.530;2023-05-10T12:00:48;8.55;;;1.95;;
54947;SDS011;41113;41.882;12.530;2023-05-10T12:03:14;5.50;;;1.42;;
54947;SDS011;41113;41.882;12.530;2023-05-10T12:05:39;6.25;;;1.67;;
54947;SDS011;41113;41.882;12.530;2023-05-10T12:08:10;7.95;;;1.80;;
54947;SDS011;41113;41.882;12.530;2023-05-10T12:10:40;9.85;;;3.10;;
54947;SDS011;41113;41.882;12.530;2023-05-10T12:13:10;7.70;;;2.55;;
54947;SDS011;41113;41.882;12.530;2023-05-10T12:15:36;9.18;;;2.50;;
54947;SDS011;41113;41.882;12.530;2023-05-10T12:18:01;7.10;;;2.38;;
54947;SDS011;41113;41.882;12.530;2023-05-10T12:20:27;8.63;;;1.85;;
54947;SDS011;41113;41.882;12.530;2023-05-10T12:22:57;6.28;;;1.67;;
54947;SDS011;41113;41.882;12.530;2023-05-10T12:25:34;9.55;;;2.20;;
54947;SDS011;41113;41.882;12.530;2023-05-10T12:28:03;6.07;;;1.98;;
54947;SDS011;41113;41.882;12.530;2023-05-10T12:30:31;7.07;;;2.00;;
54947;SDS011;41113;41.882;12.530;2023-05-10T12:33:02;7.55;;;1.88;;
54947;SDS011;41113;41.882;12.530;2023-05-10T12:35:32;8.23;;;1.83;;
54947;SDS011;41113;41.882;12.530;2023-05-10T12:37:58;8.23;;;2.17;;
54947;SDS011;41113;41.882;12.530;2023-05-10T12:40:24;6.05;;;1.92;;
54947;SDS011;41113;41.882;12.530;2023-05-10T12:42:50;7.53;;;1.90;;
54947;SDS011;41113;41.882;12.530;2023-05-10T12:45:17;7.25;;;2.15;;
54947;SDS011;41113;41.882;12.530;2023-05-10T12:47:43;6.57;;;1.90;;
54947;SDS011;41113;41.882;12.530;2023-05-10T12:50:08;6.07;;;1.73;;
54947;SDS011;41113;41.882;12.530;2023-05-10T12:52:34;6.75;;;2.13;;
54947;SDS011;41113;41.882;12.530;2023-05-10T12:54:59;8.35;;;1.63;;
54947;SDS011;41113;41.882;12.530;2023-05-10T12:57:28;6.97;;;1.80;;
54947;SDS011;41113;41.882;12.530;2023-05-10T12:59:53;8.73;;;1.90;;
54947;SDS011;41113;41.882;12.530;2023-05-10T13:02:19;7.13;;;1.73;;
54947;SDS011;41113;41.882;12.530;2023-05-10T13:04:47;6.75;;;2.05;;
54947;SDS011;41113;41.882;12.530;2023-05-10T13:07:13;7.47;;;2.20;;
54947;SDS011;41113;41.882;12.530;2023-05-10T13:09:39;7.20;;;2.42;;
54947;SDS011;41113;41.882;12.530;2023-05-10T13:12:04;7.97;;;2.55;;
54947;SDS011;41113;41.882;12.530;2023-05-10T13:14:30;6.32;;;2.20;;
54947;SDS011;41113;41.882;12.530;2023-05-10T13:16:56;10.27;;;2.20;;
54947;SDS011;41113;41.882;12.530;2023-05-10T13:19:21;7.88;;;2.22;;
54947;SDS011;41113;41.882;12.530;2023-05-10T13:21:48;9.90;;;2.20;;
54947;SDS011;41113;41.882;12.530;2023-05-10T13:24:13;8.48;;;2.30;;
54947;SDS011;41113;41.882;12.530;2023-05-10T13:26:39;9.52;;;2.60;;
54947;SDS011;41113;41.882;12.530;2023-05-10T13:29:05;9.18;;;2.03;;
54947;SDS011;41113;41.882;12.530;2023-05-10T13:31:31;7.03;;;2.13;;
54947;SDS011;41113;41.882;12.530;2023-05-10T13:33:58;7.97;;;2.00;;
54947;SDS011;41113;41.882;12.530;2023-05-10T13:36:23;8.35;;;2.03;;
54947;SDS011;41113;41.882;12.530;2023-05-10T13:38:49;7.72;;;2.10;;
54947;SDS011;41113;41.882;12.530;2023-05-10T13:41:14;10.27;;;2.20;;
54947;SDS011;41113;41.882;12.530;2023-05-10T13:43:39;9.38;;;2.50;;
54947;SDS011;41113;41.882;12.530;2023-05-10T13:46:05;8.85;;;3.08;;
54947;SDS011;41113;41.882;12.530;2023-05-10T13:48:30;8.80;;;2.30;;
54947;SDS011;41113;41.882;12.530;2023-05-10T13:50:56;6.05;;;2.00;;
54947;SDS011;41113;41.882;12.530;2023-05-10T13:53:21;8.25;;;2.10;;
54947;SDS011;41113;41.882;12.530;2023-05-10T13:55:47;9.10;;;2.35;;
54947;SDS011;41113;41.882;12.530;2023-05-10T13:58:12;9.90;;;2.33;;
54947;SDS011;41113;41.882;12.530;2023-05-10T14:00:38;9.95;;;2.03;;
54947;SDS011;41113;41.882;12.530;2023-05-10T14:03:03;7.95;;;2.03;;
54947;SDS011;41113;41.882;12.530;2023-05-10T14:05:30;6.40;;;2.00;;
54947;SDS011;41113;41.882;12.530;2023-05-10T14:07:55;8.60;;;1.98;;
54947;SDS011;41113;41.882;12.530;2023-05-10T14:10:21;8.75;;;2.10;;
54947;SDS011;41113;41.882;12.530;2023-05-10T14:12:46;7.93;;;2.35;;
54947;SDS011;41113;41.882;12.530;2023-05-10T14:15:12;8.60;;;2.25;;
54947;SDS011;41113;41.882;12.530;2023-05-10T14:17:37;9.70;;;2.55;;
54947;SDS011;41113;41.882;12.530;2023-05-10T14:20:02;7.82;;;2.33;;
54947;SDS011;41113;41.882;12.530;2023-05-10T14:22:28;9.95;;;2.47;;
54947;SDS011;41113;41.882;12.530;2023-05-10T14:24:54;10.45;;;2.85;;
54947;SDS011;41113;41.882;12.530;2023-05-10T14:27:20;9.27;;;3.13;;
54947;SDS011;41113;41.882;12.530;2023-05-10T14:29:47;8.80;;;2.60;;
54947;SDS011;41113;41.882;12.530;2023-05-10T14:32:12;7.88;;;2.38;;
54947;SDS011;41113;41.882;12.530;2023-05-10T14:34:37;7.22;;;2.20;;
54947;SDS011;41113;41.882;12.530;2023-05-10T14:37:03;9.65;;;2.25;;
54947;SDS011;41113;41.882;12.530;2023-05-10T14:39:29;12.70;;;2.40;;
54947;SDS011;41113;41.882;12.530;2023-05-10T14:41:55;9.63;;;2.40;;
54947;SDS011;41113;41.882;12.530;2023-05-10T14:44:20;8.65;;;2.55;;
54947;SDS011;41113;41.882;12.530;2023-05-10T14:46:45;8.43;;;2.50;;
54947;SDS011;41113;41.882;12.530;2023-05-10T14:49:12;9.63;;;2.50;;
54947;SDS011;41113;41.882;12.530;2023-05-10T14:51:37;6.00;;;2.00;;
54947;SDS011;41113;41.882;12.530;2023-05-10T14:54:02;10.43;;;2.50;;
54947;SDS011;41113;41.882;12.530;2023-05-10T14:56:28;10.18;;;2.95;;
54947;SDS011;41113;41.882;12.530;2023-05-10T14:58:54;9.75;;;2.60;;
54947;SDS011;41113;41.882;12.530;2023-05-10T15:01:19;10.05;;;2.70;;
54947;SDS011;41113;41.882;12.530;2023-05-10T15:03:46;7.65;;;2.13;;
54947;SDS011;41113;41.882;12.530;2023-05-10T15:06:13;10.25;;;2.72;;
54947;SDS011;41113;41.882;12.530;2023-05-10T15:08:42;8.57;;;2.40;;
54947;SDS011;41113;41.882;12.530;2023-05-10T15:11:08;7.93;;;2.50;;
54947;SDS011;41113;41.882;12.530;2023-05-10T15:13:33;11.25;;;3.17;;
54947;SDS011;41113;41.882;12.530;2023-05-10T15:15:58;13.32;;;2.90;;